Time;durP1;ratioP1;P1;durP2;ratioP2;P2;SDS_P1;SDS_P2;PMS_P1;PMS_P2;Temp;Humidity;BMP_temperature;BMP_pressure;BME280_temperature;BME280_humidity;BME280_pressure;Samples;Min_cycle;Max_cycle;Signal;HPM_P1;HPM_P2
2023/01/16 00:02:53;;;;;;;;;;;;;;;18.20;72.35;99346.28;2265138;77;51508;-77
2023/01/16 00:05:54;;;;;;;;;;;;;;;18.19;72.48;99354.02;2265190;77;51485;-76
2023/01/16 00:08:56;;;;;;;;;;;;;;;18.17;72.62;99341.36;2289957;76;51078;-76
2023/01/16 00:11:58;;;;;;;;;;;;;;;18.13;72.73;99343.61;2312370;77;51478;-76
2023/01/16 00:14:59;;;;;;;;;;;;;;;18.08;73.05;99338.59;2312599;76;50350;-75
2023/01/16 00:18:01;;;;;;;;;;;;;;;18.08;73.13;99340.75;2312514;77;50314;-75
2023/01/16 00:21:02;;;;;;;;;;;;;;;18.10;73.06;99340.55;2290658;77;49562;-75
2023/01/16 00:24:06;;;;;;;;;;;;;;;18.08;73.08;99342.09;2289976;77;50206;-75
2023/01/16 00:27:08;;;;;;;;;;;;;;;18.17;72.76;99353.41;2286713;76;50332;-74
2023/01/16 00:30:10;;;;;;;;;;;;;;;18.20;72.50;99346.28;2268191;76;51706;-75
2023/01/16 00:33:11;;;;;;;;;;;;;;;18.22;72.45;99345.03;2278094;76;51555;-76
2023/01/16 00:36:13;;;;;;;;;;;;;;;18.19;72.50;99337.44;2282014;77;51361;-76
2023/01/16 00:39:15;;;;;;;;;;;;;;;18.18;72.62;99336.29;2282058;77;51503;-75
2023/01/16 00:42:16;;;;;;;;;;;;;;;18.17;72.64;99336.00;2303153;77;50500;-76
2023/01/16 00:45:18;;;;;;;;;;;;;;;18.15;72.78;99343.41;2282107;77;51718;-77
2023/01/16 00:48:20;;;;;;;;;;;;;;;18.08;73.02;99340.75;2303565;77;50329;-76
2023/01/16 00:51:21;;;;;;;;;;;;;;;18.06;73.13;99346.33;2309170;77;50304;-76
2023/01/16 00:54:23;;;;;;;;;;;;;;;18.11;73.07;99352.89;2312413;76;50659;-77
2023/01/16 00:57:24;;;;;;;;;;;;;;;18.11;73.00;99352.89;2293981;76;51800;-76
2023/01/16 01:00:26;;;;;;;;;;;;;;;18.15;72.82;99343.41;2278644;75;51464;-76
2023/01/16 01:03:28;;;;;;;;;;;;;;;18.15;72.70;99355.46;2328361;74;51468;-76
2023/01/16 01:06:29;;;;;;;;;;;;;;;18.13;72.87;99347.63;2352308;75;50087;-76
2023/01/16 01:09:31;;;;;;;;;;;;;;;18.12;72.93;99351.88;2328323;75;51816;-75
2023/01/16 01:12:33;;;;;;;;;;;;;;;18.11;73.10;99355.56;2328312;75;51619;-76
2023/01/16 01:15:34;;;;;;;;;;;;;;;18.05;73.20;99358.05;2328447;75;51513;-75
2023/01/16 01:18:36;;;;;;;;;;;;;;;18.05;73.23;99346.53;2352191;75;50666;-76
2023/01/16 01:21:37;;;;;;;;;;;;;;;18.03;73.32;99336.06;2315342;75;50434;-77
2023/01/16 01:24:39;;;;;;;;;;;;;;;18.06;73.25;99346.86;2312336;75;50377;-75
2023/01/16 01:27:40;;;;;;;;;;;;;;;18.07;73.20;99347.15;2316356;76;50801;-76
2023/01/16 01:30:42;;;;;;;;;;;;;;;18.04;73.30;99344.38;2268738;78;50662;-76
2023/01/16 01:33:44;;;;;;;;;;;;;;;18.11;72.94;99336.83;2238030;76;52809;-75
2023/01/16 01:36:45;;;;;;;;;;;;;;;18.16;72.68;99345.05;2240124;77;52550;-76
2023/01/16 01:39:47;;;;;;;;;;;;;;;18.17;72.65;99350.72;2267097;77;51547;-75
2023/01/16 01:42:51;;;;;;;;;;;;;;;18.16;72.65;99343.22;2284783;77;51453;-76
2023/01/16 01:45:52;;;;;;;;;;;;;;;18.14;72.72;99347.14;2261619;77;22374;-75
2023/01/16 01:48:55;;;;;;;;;;;;;;;18.11;72.83;99341.69;2285960;77;52503;-76
2023/01/16 01:51:58;;;;;;;;;;;;;;;18.08;73.05;99341.27;2284365;78;51614;-76
2023/01/16 01:55:01;;;;;;;;;;;;;;;18.04;73.21;99336.34;2284376;76;50316;-76
2023/01/16 01:58:02;;;;;;;;;;;;;;;18.02;73.25;99339.75;2299168;76;52463;-76
2023/01/16 02:01:04;;;;;;;;;;;;;;;18.05;73.15;99339.84;2313608;76;52355;-76
2023/01/16 02:04:07;;;;;;;;;;;;;;;18.01;73.46;99345.33;2314209;76;51508;-76
2023/01/16 02:07:10;;;;;;;;;;;;;;;18.08;73.05;99343.95;2312542;77;52341;-76
2023/01/16 02:10:19;;;;;;;;;;;;;;;18.11;72.84;99335.48;2312438;77;50779;-75
2023/01/16 02:13:21;;;;;;;;;;;;;;;18.11;72.83;99339.02;2290087;76;52418;-76
2023/01/16 02:19:45;;;;;;;;;;;;;;;18.08;72.85;99331.91;2174228;80;22394;-76
2023/01/16 02:22:51;;;;;;;;;;;;;;;18.03;73.19;99330.70;2200836;80;50411;-76
2023/01/16 02:29:40;;;;;;;;;;;;;;;18.02;73.44;99330.37;2237194;79;22792;-76
2023/01/16 02:32:55;;;;;;;;;;;;;;;18.04;73.25;99330.18;2236178;79;51518;-75
2023/01/16 02:36:07;;;;;;;;;;;;;;;18.02;73.41;99327.70;2236594;79;51495;-76
2023/01/16 02:39:10;;;;;;;;;;;;;;;18.03;73.43;99328.03;2211832;79;51285;-76
2023/01/16 02:42:26;;;;;;;;;;;;;;;18.06;73.06;99330.27;2236008;79;50425;-77
2023/01/16 02:45:29;;;;;;;;;;;;;;;18.10;72.88;99325.83;2236419;79;51517;-76
2023/01/16 02:48:33;;;;;;;;;;;;;;;18.09;72.92;99321.52;2235155;79;50832;-76
2023/01/16 02:51:36;;;;;;;;;;;;;;;18.06;72.93;99322.25;2280111;76;51295;-75
2023/01/16 02:54:39;;;;;;;;;;;;;;;18.04;73.12;99308.24;2327657;76;50258;-76
2023/01/16 02:57:42;;;;;;;;;;;;;;;18.02;73.26;99308.16;2319033;75;50339;-76
2023/01/16 03:00:51;;;;;;;;;;;;;;;17.99;73.45;99294.67;2349696;75;50792;-76
2023/01/16 03:03:57;;;;;;;;;;;;;;;17.98;73.49;99293.53;2330569;75;51217;-76
2023/01/16 03:07:00;;;;;;;;;;;;;;;17.99;73.37;99281.81;2398073;74;50829;-76
2023/01/16 03:10:20;;;;;;;;;;;;;;;17.99;73.50;99282.63;2421284;73;50739;-77
2023/01/16 03:13:29;;;;;;;;;;;;;;;17.98;73.42;99281.00;2424025;73;50713;-76
2023/01/16 03:16:44;;;;;;;;;;;;;;;18.05;73.00;99269.73;2361005;74;52742;-75
2023/01/16 03:19:54;;;;;;;;;;;;;;;18.08;72.82;99277.84;2380959;74;51455;-75
2023/01/16 03:23:00;;;;;;;;;;;;;;;18.08;72.76;99279.19;2380877;74;50365;-77
2023/01/16 03:26:12;;;;;;;;;;;;;;;18.06;72.90;99270.05;2378681;74;50281;-76
2023/01/16 03:29:30;;;;;;;;;;;;;;;18.03;72.98;99265.12;2369050;73;51776;-76
2023/01/16 03:32:36;;;;;;;;;;;;;;;18.00;73.18;99256.16;2378810;75;50422;-76
2023/01/16 03:35:39;;;;;;;;;;;;;;;17.96;73.40;99252.81;2387828;73;51521;-75
2023/01/16 03:38:42;;;;;;;;;;;;;;;17.94;73.56;99249.00;2399920;73;51598;-75
2023/01/16 03:41:44;;;;;;;;;;;;;;;17.95;73.52;99246.61;2399798;73;52563;-76
2023/01/16 03:44:49;;;;;;;;;;;;;;;17.95;73.56;99245.27;2422977;72;51544;-76
2023/01/16 03:47:52;;;;;;;;;;;;;;;17.96;73.24;99241.58;2394653;73;50411;-76
2023/01/16 03:50:55;;;;;;;;;;;;;;;18.02;72.96;99238.04;2381530;74;50333;-77
2023/01/16 03:54:01;;;;;;;;;;;;;;;18.04;72.79;99238.66;2398174;72;50508;-75
2023/01/16 03:57:08;;;;;;;;;;;;;;;18.05;72.80;99242.96;2407937;72;51503;-76
2023/01/16 04:00:10;;;;;;;;;;;;;;;18.03;72.84;99230.33;2395320;73;51522;-75
2023/01/16 04:03:13;;;;;;;;;;;;;;;18.01;72.99;99230.24;2383120;73;50282;-74
2023/01/16 04:06:23;;;;;;;;;;;;;;;17.98;73.19;99230.64;2381906;73;50786;-75
2023/01/16 04:09:27;;;;;;;;;;;;;;;17.91;73.30;99218.66;2362386;73;51545;-75
2023/01/16 04:12:29;;;;;;;;;;;;;;;17.92;73.47;99216.27;2381580;73;51458;-75
2023/01/16 04:15:31;;;;;;;;;;;;;;;17.95;73.34;99203.80;2413183;72;50327;-75
2023/01/16 04:18:33;;;;;;;;;;;;;;;17.96;73.28;99201.96;2398715;72;51794;-75
2023/01/16 04:21:35;;;;;;;;;;;;;;;17.94;73.45;99200.83;2426186;73;50772;-75
2023/01/16 04:24:36;;;;;;;;;;;;;;;18.00;72.91;99197.28;2427370;72;51714;-74
2023/01/16 04:27:38;;;;;;;;;;;;;;;18.04;72.72;99189.66;2369021;73;52538;-76
2023/01/16 04:30:40;;;;;;;;;;;;;;;18.04;72.67;99191.81;2342637;75;51725;-74
2023/01/16 04:33:41;;;;;;;;;;;;;;;18.03;72.67;99186.66;2379491;75;50790;-74
2023/01/16 04:36:43;;;;;;;;;;;;;;;18.01;72.87;99186.90;2356873;74;50413;-74
2023/01/16 04:39:46;;;;;;;;;;;;;;;17.99;72.99;99178.26;2357017;74;50286;-74
2023/01/16 04:42:48;;;;;;;;;;;;;;;17.95;73.22;99166.33;2330473;74;52588;-74
2023/01/16 04:45:49;;;;;;;;;;;;;;;17.92;73.34;99166.77;2380989;74;50697;-75
2023/01/16 04:48:51;;;;;;;;;;;;;;;17.95;73.23;99160.16;2381085;74;51446;-75
2023/01/16 04:51:53;;;;;;;;;;;;;;;17.97;73.07;99164.27;2380871;74;52346;-76
2023/01/16 04:54:54;;;;;;;;;;;;;;;17.94;73.23;99159.87;2330173;74;51687;-75
2023/01/16 04:57:56;;;;;;;;;;;;;;;17.98;72.92;99160.57;2355476;73;50664;-76
2023/01/16 05:00:57;;;;;;;;;;;;;;;18.02;72.67;99152.39;2389769;73;51526;-75
2023/01/16 05:03:59;;;;;;;;;;;;;;;18.03;72.50;99144.69;2356628;74;51578;-75
2023/01/16 05:07:00;;;;;;;;;;;;;;;18.03;72.50;99147.36;2358133;74;52375;-76
2023/01/16 05:10:02;;;;;;;;;;;;;;;18.00;72.71;99141.60;2381027;74;51623;-75
2023/01/16 05:13:04;;;;;;;;;;;;;;;17.97;72.75;99138.03;2380728;74;51572;-75
2023/01/16 05:16:05;;;;;;;;;;;;;;;17.94;73.05;99136.59;2385900;73;51457;-76
2023/01/16 05:19:07;;;;;;;;;;;;;;;17.91;73.18;99130.34;2394776;73;51322;-77
2023/01/16 05:22:09;;;;;;;;;;;;;;;17.89;73.39;99131.08;2423397;73;50288;-75
2023/01/16 05:25:10;;;;;;;;;;;;;;;17.92;73.15;99126.63;2399855;73;50286;-74
2023/01/16 05:28:12;;;;;;;;;;;;;;;17.92;73.22;99126.63;2408708;73;50291;-75
2023/01/16 05:31:13;;;;;;;;;;;;;;;17.93;73.06;99128.28;2359271;74;50848;-75
2023/01/16 05:34:15;;;;;;;;;;;;;;;17.99;72.64;99123.91;2378780;75;50740;-74
2023/01/16 05:37:16;;;;;;;;;;;;;;;18.00;72.55;99114.84;2354663;75;50673;-77
2023/01/16 05:40:18;;;;;;;;;;;;;;;18.00;72.51;99118.33;2356090;75;52728;-78
2023/01/16 05:43:20;;;;;;;;;;;;;;;17.98;72.54;99120.43;2354622;75;51552;-78
2023/01/16 05:46:21;;;;;;;;;;;;;;;17.96;72.64;99119.81;2378353;75;51468;-76
2023/01/16 05:49:23;;;;;;;;;;;;;;;17.93;72.86;99122.93;2340757;75;51592;-79
2023/01/16 05:52:25;;;;;;;;;;;;;;;17.89;73.12;99108.33;2341125;74;50927;-77
2023/01/16 05:55:27;;;;;;;;;;;;;;;17.91;73.10;99110.28;2331844;74;51780;-74
2023/01/16 05:58:28;;;;;;;;;;;;;;;17.93;72.95;99106.03;2348249;74;50138;-75
2023/01/16 06:01:30;;;;;;;;;;;;;;;17.94;72.96;99103.67;2406231;73;50278;-77
2023/01/16 06:04:31;;;;;;;;;;;;;;;17.93;73.00;99103.36;2399674;73;50192;-76
2023/01/16 06:07:33;;;;;;;;;;;;;;;17.97;72.59;99105.39;2394559;73;51846;-76
2023/01/16 06:10:35;;;;;;;;;;;;;;;18.03;72.29;99091.16;2423635;73;50766;-76
2023/01/16 06:13:36;;;;;;;;;;;;;;;18.04;72.14;99090.63;2423241;73;50453;-78
2023/01/16 06:16:38;;;;;;;;;;;;;;;18.06;72.11;99088.04;2400000;73;50331;-76
2023/01/16 06:19:39;;;;;;;;;;;;;;;18.04;72.10;99086.63;2394673;73;51531;-76
2023/01/16 06:22:41;;;;;;;;;;;;;;;18.01;72.26;99083.86;2423390;73;51443;-76
2023/01/16 06:25:43;;;;;;;;;;;;;;;17.98;72.28;99074.94;2423629;73;51468;-73
2023/01/16 06:28:44;;;;;;;;;;;;;;;17.95;72.54;99081.22;2397640;73;51488;-75
2023/01/16 06:31:46;;;;;;;;;;;;;;;17.91;72.90;99084.05;2332572;73;52410;-75
2023/01/16 06:34:47;;;;;;;;;;;;;;;17.93;72.89;99084.63;2423401;73;51465;-74
2023/01/16 06:37:49;;;;;;;;;;;;;;;17.91;72.99;99071.48;2413021;73;50220;-75
2023/01/16 06:40:55;;;;;;;;;;;;;;;17.91;72.68;99072.00;2379329;74;51564;-77
2023/01/16 06:43:54;;;;;;;;;;;;;;;17.92;72.53;99069.09;2372812;75;23033;-75
2023/01/16 06:46:55;;;;;;;;;;;;;;;17.93;72.70;99071.24;2343410;75;52800;-75
2023/01/16 06:49:57;;;;;;;;;;;;;;;17.93;72.61;99073.92;2365250;75;50367;-78
2023/01/16 06:52:59;;;;;;;;;;;;;;;17.98;71.32;99068.23;2374280;73;50283;-76
2023/01/16 06:56:01;;;;;;;;;;;;;;;17.91;71.00;99072.81;2344914;75;51536;-76
2023/01/16 06:59:02;;;;;;;;;;;;;;;17.90;70.94;99060.45;2370670;73;51482;-75
2023/01/16 07:02:04;;;;;;;;;;;;;;;17.87;70.80;99059.55;2347808;74;51442;-74
2023/01/16 07:05:07;;;;;;;;;;;;;;;17.88;70.17;99060.38;2351068;75;51459;-73
2023/01/16 07:08:09;;;;;;;;;;;;;;;17.85;70.44;99060.28;2341151;75;51716;-73
2023/01/16 07:11:10;;;;;;;;;;;;;;;17.87;70.24;99057.41;2369632;74;51594;-73
2023/01/16 07:24:16;;;;;;;;;;;;;;;18.15;69.27;99048.95;2381096;73;22409;-74
2023/01/16 07:27:17;;;;;;;;;;;;;;;18.17;69.18;99050.89;2371957;74;50174;-74
2023/01/16 07:30:19;;;;;;;;;;;;;;;18.18;69.06;99050.66;2393854;72;50679;-74
2023/01/16 07:33:21;;;;;;;;;;;;;;;18.17;69.06;99044.20;2355859;75;50018;-74
2023/01/16 07:36:22;;;;;;;;;;;;;;;18.16;69.09;99045.22;2376454;74;50251;-73
2023/01/16 07:39:24;;;;;;;;;;;;;;;18.13;69.21;99047.82;2371950;75;50255;-73
2023/01/16 07:42:26;;;;;;;;;;;;;;;18.10;69.38;99042.09;2341756;74;50353;-74
2023/01/16 07:45:27;;;;;;;;;;;;;;;18.05;69.54;99036.05;2340288;75;51733;-74
2023/01/16 07:48:29;;;;;;;;;;;;;;;18.03;69.56;99036.78;2340691;74;50764;-73
2023/01/16 07:51:30;;;;;;;;;;;;;;;18.09;69.30;99029.77;2375696;74;51564;-75
2023/01/16 07:54:35;;;;;;;;;;;;;;;18.10;69.20;99026.85;2371233;74;50757;-76
2023/01/16 07:57:38;;;;;;;;;;;;;;;18.11;69.14;99024.98;2352933;73;22590;-77
2023/01/16 08:00:40;;;;;;;;;;;;;;;18.05;69.23;99007.42;2395892;73;51707;-74
2023/01/16 08:03:41;;;;;;;;;;;;;;;18.04;69.32;98999.11;2381361;74;50282;-75
2023/01/16 08:06:44;;;;;;;;;;;;;;;18.00;69.46;98996.56;2380895;74;50238;-76
2023/01/16 08:09:46;;;;;;;;;;;;;;;17.97;69.59;98986.83;2331655;74;51063;-75
2023/01/16 08:12:47;;;;;;;;;;;;;;;17.93;69.78;98989.13;2380571;74;51413;-75
2023/01/16 08:15:50;;;;;;;;;;;;;;;17.89;69.99;98991.94;2357535;73;50722;-74
2023/01/16 08:18:52;;;;;;;;;;;;;;;17.89;69.90;98996.47;2381363;73;51566;-74
2023/01/16 08:21:53;;;;;;;;;;;;;;;17.90;69.92;98988.20;2331737;74;52561;-75
2023/01/16 08:24:55;;;;;;;;;;;;;;;17.98;69.70;98977.25;2358487;74;51379;-74
2023/01/16 08:27:56;;;;;;;;;;;;;;;18.08;69.46;98974.58;2380463;73;51448;-74
2023/01/16 08:30:59;;;;;;;;;;;;;;;18.14;69.31;98972.37;2379219;73;50876;-75
2023/01/16 08:34:01;;;;;;;;;;;;;;;18.18;69.21;98964.19;2355380;75;51005;-74
2023/01/16 08:37:04;;;;;;;;;;;;;;;18.25;69.07;98959.59;2354721;74;49974;-74
2023/01/16 08:40:06;;;;;;;;;;;;;;;18.20;69.15;98959.43;2379092;74;50348;-78
2023/01/16 08:52:58;;;;;;;;;;;;;;;18.14;69.17;98935.72;2379228;75;22392;-74
2023/01/16 08:55:59;;;;;;;;;;;;;;;18.14;69.32;98925.00;2377738;74;50733;-75
2023/01/16 08:59:01;;;;;;;;;;;;;;;18.06;69.50;98910.58;2345992;73;52488;-75
2023/01/16 09:02:02;;;;;;;;;;;;;;;18.14;69.20;98914.83;2354148;75;51642;-74
2023/01/16 09:05:04;;;;;;;;;;;;;;;18.13;69.10;98907.81;2378864;73;50832;-75
2023/01/16 09:08:06;;;;;;;;;;;;;;;18.13;69.04;98904.61;2378806;75;50459;-75
2023/01/16 09:14:27;;;;;;;;;;;;;;;18.07;69.16;98888.12;2378721;75;25240;-76
2023/01/16 09:17:29;;;;;;;;;;;;;;;18.01;69.33;98888.49;2378812;74;51455;-73
2023/01/16 09:20:30;;;;;;;;;;;;;;;17.97;69.51;98883.27;2378791;75;51439;-74
2023/01/16 09:23:32;;;;;;;;;;;;;;;17.97;69.73;98883.80;2327813;75;52305;-74
2023/01/16 09:26:33;;;;;;;;;;;;;;;17.92;69.89;98877.77;2379128;73;51469;-76
2023/01/16 09:29:35;;;;;;;;;;;;;;;17.89;69.97;98870.19;2408801;72;50223;-74
2023/01/16 09:32:36;;;;;;;;;;;;;;;17.91;69.70;98868.12;2423791;73;50327;-75
2023/01/16 09:35:38;;;;;;;;;;;;;;;17.96;69.43;98865.59;2362484;72;51308;-75
2023/01/16 09:38:39;;;;;;;;;;;;;;;18.05;69.13;98861.56;2423901;72;50701;-74
2023/01/16 09:45:04;;;;;;;;;;;;;;;18.18;68.53;98857.11;2385951;73;22452;-74
2023/01/16 09:48:07;;;;;;;;;;;;;;;18.15;68.61;98848.19;2389661;72;51723;-74
2023/01/16 09:51:13;;;;;;;;;;;;;;;18.16;68.48;98842.63;2423820;72;50595;-75
2023/01/16 10:00:59;;;;;;;;;;;;;;;17.95;63.40;98821.13;2379162;75;22326;-75
2023/01/16 10:04:02;;;;;;;;;;;;;;;17.89;64.16;98810.52;2380806;73;50422;-74
2023/01/16 10:07:09;;;;;;;;;;;;;;;17.88;64.02;98812.37;2380152;73;50472;-75
2023/01/16 10:10:29;;;;;;;;;;;;;;;17.84;64.37;98803.96;2380895;74;50833;-75
2023/01/16 10:13:32;;;;;;;;;;;;;;;17.88;64.65;98794.14;2357739;74;49595;-73
2023/01/16 10:16:39;;;;;;;;;;;;;;;17.94;64.88;98786.58;2380925;73;50376;-75
2023/01/16 10:19:42;;;;;;;;;;;;;;;18.01;64.94;98782.78;2380969;74;51703;-75
2023/01/16 10:22:45;;;;;;;;;;;;;;;18.06;65.10;98774.90;2380739;74;51608;-76
2023/01/16 10:26:04;;;;;;;;;;;;;;;18.14;65.05;98763.59;2357850;74;51212;-75
2023/01/16 10:29:16;;;;;;;;;;;;;;;18.18;65.07;98756.73;2387455;73;51599;-74
2023/01/16 10:32:28;;;;;;;;;;;;;;;18.20;65.12;98746.09;2378719;74;51614;-75
2023/01/16 10:35:32;;;;;;;;;;;;;;;18.17;65.34;98749.75;2378812;74;51628;-75
2023/01/16 10:38:45;;;;;;;;;;;;;;;18.14;65.48;98736.83;2355889;75;51798;-74
2023/01/16 10:52:03;;;;;;;;;;;;;;;18.10;65.75;98712.88;2378906;74;23073;-75
2023/01/16 10:55:05;;;;;;;;;;;;;;;18.18;65.61;98700.52;2378782;74;51650;-76
2023/01/16 10:58:08;;;;;;;;;;;;;;;18.10;65.78;98692.81;2387057;73;52232;-75
2023/01/16 11:01:11;;;;;;;;;;;;;;;18.09;65.82;98693.34;2384413;73;51461;-74
2023/01/16 11:04:13;;;;;;;;;;;;;;;18.09;65.92;98684.50;2355741;75;51013;-74
2023/01/16 11:07:15;;;;;;;;;;;;;;;18.06;65.99;98675.87;2378787;75;50739;-74
2023/01/16 11:10:17;;;;;;;;;;;;;;;18.04;66.10;98667.25;2378866;74;51699;-75
2023/01/16 11:20:03;;;;;;;;;;;;;;;17.98;66.51;98639.23;2379239;75;22479;-74
2023/01/16 11:23:06;;;;;;;;;;;;;;;17.96;66.72;98638.14;2378556;73;51519;-75
2023/01/16 11:26:07;;;;;;;;;;;;;;;17.98;66.48;98636.56;2354667;74;50829;-75
2023/01/16 11:29:10;;;;;;;;;;;;;;;18.04;66.18;98627.11;2372613;73;50967;-74
2023/01/16 11:32:13;;;;;;;;;;;;;;;18.09;66.04;98618.41;2378703;73;51624;-74
2023/01/16 11:35:16;;;;;;;;;;;;;;;18.11;65.91;98610.12;2378943;75;50319;-74
2023/01/16 11:38:17;;;;;;;;;;;;;;;18.19;65.73;98605.80;2379050;75;51568;-77
2023/01/16 11:41:20;;;;;;;;;;;;;;;18.19;65.75;98596.44;2356060;75;52535;-74
2023/01/16 11:47:47;;;;;;;;;;;;;;;18.24;65.65;98579.16;2380134;74;23040;-75
2023/01/16 11:50:49;;;;;;;;;;;;;;;18.25;65.58;98579.44;2378784;73;50109;-75
2023/01/16 11:53:51;;;;;;;;;;;;;;;18.22;65.53;98562.51;2328098;75;52442;-75
2023/01/16 11:56:54;;;;;;;;;;;;;;;18.16;65.89;98553.55;2380325;73;51520;-74
2023/01/16 12:00:00;;;;;;;;;;;;;;;18.13;65.86;98551.84;2400768;73;50495;-75
2023/01/16 12:03:16;;;;;;;;;;;;;;;18.12;65.73;98543.00;2426002;72;51512;-75
2023/01/16 12:06:23;;;;;;;;;;;;;;;18.13;65.67;98535.77;2392258;73;52212;-74
2023/01/16 12:09:26;;;;;;;;;;;;;;;18.11;65.73;98528.50;2425868;72;51528;-72
2023/01/16 12:16:04;;;;;;;;;;;;;;;18.15;66.12;98517.10;2426069;72;22469;-74
2023/01/16 12:19:23;;;;;;;;;;;;;;;18.14;66.42;98506.65;2425264;73;22358;-74
2023/01/16 12:22:27;;;;;;;;;;;;;;;18.05;66.86;98501.61;2424415;73;51384;-75
2023/01/16 12:25:50;;;;;;;;;;;;;;;17.98;67.05;98492.91;2424569;72;50370;-75
2023/01/16 12:28:59;;;;;;;;;;;;;;;17.93;67.25;98491.45;2396265;72;50826;-75
2023/01/16 12:32:09;;;;;;;;;;;;;;;17.95;67.27;98489.33;2354710;73;51802;-75
2023/01/16 12:35:12;;;;;;;;;;;;;;;17.91;67.26;98472.12;2379242;73;50236;-75
2023/01/16 12:38:20;;;;;;;;;;;;;;;17.98;66.91;98472.00;2377482;74;50493;-76
2023/01/16 12:44:46;;;;;;;;;;;;;;;18.08;66.51;98462.06;2379379;74;22349;-75
2023/01/16 12:48:01;;;;;;;;;;;;;;;18.05;66.51;98444.08;2379401;74;50287;-75
2023/01/16 12:51:23;;;;;;;;;;;;;;;18.06;66.47;98447.06;2379150;74;51619;-75
2023/01/16 12:54:26;;;;;;;;;;;;;;;18.01;66.54;98429.55;2378790;74;50343;-76
2023/01/16 12:57:29;;;;;;;;;;;;;;;17.96;66.72;98421.41;2356828;74;49856;-75
2023/01/16 13:00:33;;;;;;;;;;;;;;;17.92;66.91;98400.70;2394588;73;50576;-74
2023/01/16 13:03:39;;;;;;;;;;;;;;;17.90;67.08;98391.55;2379300;74;50474;-75
2023/01/16 13:06:41;;;;;;;;;;;;;;;17.87;67.29;98380.52;2379658;73;22331;-74
2023/01/16 13:09:44;;;;;;;;;;;;;;;17.87;67.16;98382.67;2356569;75;51293;-75
2023/01/16 13:16:07;;;;;;;;;;;;;;;18.03;66.53;98373.95;2379649;75;22390;-75
2023/01/16 13:19:14;;;;;;;;;;;;;;;18.06;66.48;98372.13;2364533;73;51593;-75
2023/01/16 13:22:17;;;;;;;;;;;;;;;18.09;66.40;98359.34;2354674;75;52607;-75
2023/01/16 13:25:20;;;;;;;;;;;;;;;18.10;66.33;98362.29;2381037;73;51559;-74
2023/01/16 13:28:42;;;;;;;;;;;;;;;18.04;66.45;98345.31;2382290;72;51656;-75
2023/01/16 13:31:46;;;;;;;;;;;;;;;18.00;66.54;98350.31;2341266;74;22319;-75
2023/01/16 13:34:49;;;;;;;;;;;;;;;17.95;66.74;98340.84;2318146;76;52528;-73
2023/01/16 13:37:52;;;;;;;;;;;;;;;17.90;66.99;98332.70;2340459;76;50301;-74
2023/01/16 13:40:56;;;;;;;;;;;;;;;17.85;67.38;98340.61;2340295;76;50065;-73
2023/01/16 13:47:29;;;;;;;;;;;;;;;17.86;67.13;98318.72;2340672;76;22546;-74
2023/01/16 13:50:31;;;;;;;;;;;;;;;17.98;66.81;98298.08;2340326;76;51558;-74
2023/01/16 13:53:32;;;;;;;;;;;;;;;18.05;66.50;98298.23;2340067;76;50710;-73
2023/01/16 13:56:34;;;;;;;;;;;;;;;18.05;66.49;98290.73;2348581;74;50307;-74
2023/01/16 13:59:43;;;;;;;;;;;;;;;18.02;66.54;98282.66;2365905;75;52383;-73
2023/01/16 14:02:45;;;;;;;;;;;;;;;18.03;66.50;98274.94;2378659;74;51804;-73
2023/01/16 14:05:50;;;;;;;;;;;;;;;17.99;66.60;98273.77;2378885;75;50272;-75
2023/01/16 14:09:04;;;;;;;;;;;;;;;17.95;66.77;98281.97;2378960;75;50536;-72
2023/01/16 14:12:20;;;;;;;;;;;;;;;17.89;67.02;98270.09;2330723;75;52498;-73
2023/01/16 14:19:02;;;;;;;;;;;;;;;17.82;67.53;98262.18;2379262;75;22530;-72
2023/01/16 14:25:19;;;;;;;;;;;;;;;17.94;66.85;98253.60;2379205;74;22489;-73
2023/01/16 14:28:21;;;;;;;;;;;;;;;18.02;66.52;98250.55;2390761;73;50810;-73
2023/01/16 14:31:27;;;;;;;;;;;;;;;18.08;66.31;98242.63;2382042;73;51473;-74
2023/01/16 14:34:30;;;;;;;;;;;;;;;18.05;66.36;98235.88;2378903;73;51547;-76
2023/01/16 14:37:32;;;;;;;;;;;;;;;18.03;66.42;98226.77;2355026;75;52796;-73
2023/01/16 14:57:12;;;;;;;;;;;;;;;17.83;67.03;98198.28;2340087;74;22302;-73
2023/01/16 15:00:18;;;;;;;;;;;;;;;17.91;66.76;98196.56;2394038;73;51510;-73
2023/01/16 15:03:23;;;;;;;;;;;;;;;17.99;66.47;98197.52;2378818;74;50330;-73
2023/01/16 15:06:26;;;;;;;;;;;;;;;18.06;66.14;98205.41;2356339;74;51032;-74
2023/01/16 15:09:28;;;;;;;;;;;;;;;18.03;66.20;98205.36;2379069;74;50295;-73
2023/01/16 15:12:37;;;;;;;;;;;;;;;18.01;66.21;98195.42;2378797;75;51538;-73
2023/01/16 15:15:39;;;;;;;;;;;;;;;17.98;66.33;98198.58;2377746;73;50419;-73
2023/01/16 15:22:04;;;;;;;;;;;;;;;17.91;66.46;98191.22;2379503;75;22365;-72
2023/01/16 15:25:07;;;;;;;;;;;;;;;17.87;66.53;98182.56;2379401;73;22303;-72
2023/01/16 15:28:10;;;;;;;;;;;;;;;17.81;66.96;98185.13;2387902;73;50399;-73
2023/01/16 15:31:13;;;;;;;;;;;;;;;17.81;66.79;98179.78;2361364;74;52515;-71
2023/01/16 15:34:21;;;;;;;;;;;;;;;17.83;66.55;98178.22;2380625;73;50438;-73
2023/01/16 15:37:24;;;;;;;;;;;;;;;17.90;66.40;98178.06;2380836;74;51640;-71
2023/01/16 15:40:26;;;;;;;;;;;;;;;17.99;66.23;98177.45;2380871;73;50343;-74
2023/01/16 15:46:55;;;;;;;;;;;;;;;18.04;65.98;98180.22;2381388;74;22467;-72
2023/01/16 15:49:58;;;;;;;;;;;;;;;18.10;65.78;98172.28;2379463;74;50900;-72
2023/01/16 15:53:00;;;;;;;;;;;;;;;18.10;65.68;98172.28;2380541;73;50254;-72
2023/01/16 15:56:03;;;;;;;;;;;;;;;18.06;65.67;98164.74;2331436;74;52522;-73
2023/01/16 15:59:04;;;;;;;;;;;;;;;18.05;65.74;98153.73;2379509;73;50111;-73
2023/01/16 16:02:19;;;;;;;;;;;;;;;18.03;65.77;98147.84;2378704;73;50312;-73
2023/01/16 16:05:20;;;;;;;;;;;;;;;18.00;65.88;98143.47;2379118;75;50384;-73
2023/01/16 16:08:23;;;;;;;;;;;;;;;17.96;65.98;98137.80;2356265;75;51976;-73
2023/01/16 16:18:01;;;;;;;;;;;;;;;18.04;65.73;98122.69;2282506;77;22518;-73
2023/01/16 16:21:06;;;;;;;;;;;;;;;18.12;65.58;98122.82;2256441;78;51179;-73
2023/01/16 16:24:09;;;;;;;;;;;;;;;18.08;65.57;98120.86;2281773;78;50849;-72
2023/01/16 16:27:12;;;;;;;;;;;;;;;18.10;65.45;98116.09;2282456;78;50351;-74
2023/01/16 16:30:15;;;;;;;;;;;;;;;18.08;65.41;98105.61;2295820;76;51652;-73
2023/01/16 16:33:19;;;;;;;;;;;;;;;18.06;65.43;98105.88;2256386;77;51661;-73
2023/01/16 16:36:21;;;;;;;;;;;;;;;18.06;65.45;98115.23;2282306;76;51699;-71
2023/01/16 16:39:27;;;;;;;;;;;;;;;18.04;65.50;98101.28;2283838;77;51524;-72
2023/01/16 16:42:34;;;;;;;;;;;;;;;17.98;65.73;98100.92;2283447;77;51466;-72
2023/01/16 16:45:36;;;;;;;;;;;;;;;17.93;65.84;98100.83;2258495;78;51547;-73
2023/01/16 16:48:37;;;;;;;;;;;;;;;17.95;65.68;98094.69;2283765;76;50762;-74
2023/01/16 16:51:39;;;;;;;;;;;;;;;18.03;65.47;98087.63;2369541;74;50725;-73
2023/01/16 16:54:42;;;;;;;;;;;;;;;18.08;65.26;98080.19;2380625;74;50451;-73
2023/01/16 16:57:44;;;;;;;;;;;;;;;18.14;65.13;98079.78;2333441;73;52737;-72
2023/01/16 17:00:45;;;;;;;;;;;;;;;18.16;64.96;98076.30;2391361;73;51479;-74
2023/01/16 17:03:48;;;;;;;;;;;;;;;18.15;64.83;98073.36;2354382;75;50759;-73
2023/01/16 17:06:52;;;;;;;;;;;;;;;18.14;64.76;98069.07;2379065;75;50304;-74
2023/01/16 17:09:54;;;;;;;;;;;;;;;18.06;64.85;98063.06;2356047;75;51789;-74
2023/01/16 17:12:57;;;;;;;;;;;;;;;18.00;65.04;98053.31;2378621;75;51575;-73
2023/01/16 17:15:59;;;;;;;;;;;;;;;17.97;65.18;98056.47;2378914;75;50948;-74
2023/01/16 17:19:20;;;;;;;;;;;;;;;17.88;65.53;98048.58;2354829;74;50449;-72
2023/01/16 17:22:22;;;;;;;;;;;;;;;17.84;65.63;98045.55;2328057;75;51198;-74
2023/01/16 17:25:26;;;;;;;;;;;;;;;17.93;65.41;98031.28;2354879;75;51602;-74
2023/01/16 17:28:28;;;;;;;;;;;;;;;18.02;65.11;98035.16;2392820;72;51561;-74
2023/01/16 17:31:29;;;;;;;;;;;;;;;18.12;64.84;98040.39;2357079;74;50642;-75
2023/01/16 17:34:32;;;;;;;;;;;;;;;18.14;64.74;98030.27;2356000;75;52483;-73
2023/01/16 17:37:34;;;;;;;;;;;;;;;18.14;64.64;98030.27;2354789;75;50712;-75
2023/01/16 17:40:36;;;;;;;;;;;;;;;18.09;64.70;98028.84;2379403;75;50391;-73
2023/01/16 17:46:57;;;;;;;;;;;;;;;18.09;64.64;98023.50;2358522;75;23394;-73
2023/01/16 17:53:19;;;;;;;;;;;;;;;17.97;64.85;98015.00;2379156;75;22479;-70
2023/01/16 17:56:21;;;;;;;;;;;;;;;17.91;65.29;98012.51;2367793;73;51616;-73